Terminal Aerodrome Forecast
Issued by NWS

Home | Current Version | Previous Version | Text Only | Print | Product List | Glossary On
Versions: 1 2 3 4 5 6 7 8 9 10 11 12 13 14 15 16 17 18 19 20 21 22 23 24 25 26 27 28
000
FTUS42 KFFC 230339 AAB
TAFPDK
TAF AMD
KPDK 230339Z 2304/2324 08007KT P6SM -RA OVC005
     FM230600 09007KT 3SM -DZ BR OVC003
     FM230800 09007KT 1/2SM -DZ FG OVC002
     FM231500 10007KT 2SM -SHRA BR OVC008
     FM231900 11007KT 6SM -SHRA BR OVC012=

USA.gov is the U.S. government's official web portal to all federal, state and local government web resources and services.